createdAt,value
2018-01-18T00:00:12.130Z,4.34
2018-01-18T00:02:47.425Z,4.34
2018-01-18T00:05:22.246Z,4.33
2018-01-18T00:07:57.439Z,4.33
2018-01-18T00:10:32.451Z,4.32
2018-01-18T00:13:07.082Z,4.30
2018-01-18T00:15:41.753Z,4.25
2018-01-18T00:18:16.673Z,4.24
2018-01-18T00:20:51.688Z,4.24
2018-01-18T00:23:26.234Z,4.26
2018-01-18T00:26:01.310Z,4.26
2018-01-18T00:28:36.207Z,4.27
2018-01-18T00:31:10.917Z,4.30
2018-01-18T00:33:45.731Z,4.27
2018-01-18T00:36:20.534Z,4.23
2018-01-18T00:38:55.461Z,4.28
2018-01-18T00:41:30.313Z,4.33
2018-01-18T00:44:05.306Z,4.29
2018-01-18T00:46:40.371Z,4.22
2018-01-18T00:49:15.242Z,4.23
2018-01-18T00:51:50.423Z,4.23
2018-01-18T00:54:25.399Z,4.17
2018-01-18T00:57:00.710Z,4.16
2018-01-18T00:59:36.265Z,4.19
2018-01-18T01:02:11.296Z,4.17
2018-01-18T01:04:46.274Z,4.12
2018-01-18T01:07:21.126Z,4.14
2018-01-18T01:09:55.761Z,4.15
2018-01-18T01:12:31.206Z,4.19
2018-01-18T01:15:06.326Z,4.22
2018-01-18T01:17:41.359Z,4.16
2018-01-18T01:20:16.266Z,4.16
2018-01-18T01:22:51.225Z,4.17
2018-01-18T01:25:26.266Z,4.15
2018-01-18T01:28:01.294Z,4.12
2018-01-18T01:30:36.390Z,4.12
2018-01-18T01:33:11.461Z,4.12
2018-01-18T01:35:46.678Z,4.15
2018-01-18T01:38:21.406Z,4.16
2018-01-18T01:40:56.557Z,4.19
2018-01-18T01:43:31.329Z,4.22
2018-01-18T01:46:06.475Z,4.24
2018-01-18T01:48:41.478Z,4.26
2018-01-18T01:51:16.330Z,4.24
2018-01-18T01:53:51.689Z,4.25
2018-01-18T01:56:27.353Z,4.25
2018-01-18T01:59:02.051Z,4.20
2018-01-18T02:01:36.884Z,4.17
2018-01-18T02:04:11.677Z,4.16
2018-01-18T02:06:46.730Z,4.09
2018-01-18T02:09:21.470Z,4.13
2018-01-18T02:11:56.650Z,4.14
2018-01-18T02:14:31.467Z,4.05
2018-01-18T02:17:06.450Z,4.04
2018-01-18T02:19:41.217Z,4.04
2018-01-18T02:22:16.097Z,4.01
2018-01-18T02:24:51.050Z,3.99
2018-01-18T02:27:25.992Z,4.00
2018-01-18T02:30:01.455Z,4.00
2018-01-18T02:32:36.646Z,3.99
2018-01-18T02:35:11.619Z,4.02
2018-01-18T02:37:46.586Z,3.96
2018-01-18T02:40:21.526Z,4.04
2018-01-18T02:42:56.742Z,4.01
2018-01-18T02:45:31.604Z,3.99
2018-01-18T02:48:06.686Z,4.03
2018-01-18T02:50:41.586Z,4.07
2018-01-18T02:53:16.739Z,4.07
2018-01-18T02:55:51.835Z,4.08
2018-01-18T02:58:26.847Z,4.11
2018-01-18T03:01:01.842Z,4.11
2018-01-18T03:03:36.749Z,4.15
2018-01-18T03:06:11.616Z,4.13
2018-01-18T03:08:46.581Z,4.18
2018-01-18T03:11:21.666Z,4.19
2018-01-18T03:13:56.669Z,4.17
2018-01-18T03:16:31.221Z,4.18
2018-01-18T03:19:06.934Z,4.20
2018-01-18T03:21:42.187Z,4.24
2018-01-18T03:24:17.077Z,4.28
2018-01-18T03:26:52.109Z,4.29
2018-01-18T03:29:27.518Z,4.26
2018-01-18T03:32:02.607Z,4.27
2018-01-18T03:34:37.845Z,4.27
2018-01-18T03:37:12.521Z,4.25
2018-01-18T03:39:47.970Z,4.29
2018-01-18T03:42:23.043Z,4.29
2018-01-18T03:44:58.072Z,4.27
2018-01-18T03:47:33.223Z,4.31
2018-01-18T03:50:08.041Z,4.34
2018-01-18T03:52:44.180Z,4.32
2018-01-18T03:55:19.649Z,4.34
2018-01-18T03:57:54.911Z,4.38
2018-01-18T04:00:29.806Z,4.39
2018-01-18T04:03:05.183Z,4.37
2018-01-18T04:05:40.790Z,4.38
2018-01-18T04:08:15.633Z,4.31
2018-01-18T04:10:50.295Z,4.39
2018-01-18T04:13:25.667Z,4.44
2018-01-18T04:16:00.922Z,4.43
2018-01-18T04:18:35.165Z,4.41
2018-01-18T04:21:10.287Z,4.43
2018-01-18T04:23:45.318Z,4.43
2018-01-18T04:26:20.294Z,4.47
2018-01-18T04:28:55.882Z,4.49
2018-01-18T04:31:30.750Z,4.44
2018-01-18T04:34:05.937Z,4.46
2018-01-18T04:36:40.720Z,4.55
2018-01-18T04:39:16.027Z,4.55
2018-01-18T04:41:50.902Z,4.52
2018-01-18T04:44:26.192Z,4.50
2018-01-18T04:47:01.002Z,4.56
2018-01-18T04:49:36.202Z,4.52
2018-01-18T04:52:11.191Z,4.54
2018-01-18T04:54:46.367Z,4.60
2018-01-18T04:57:21.510Z,4.58
2018-01-18T04:59:56.234Z,4.52
2018-01-18T05:02:31.448Z,4.50
2018-01-18T05:05:06.449Z,4.42
2018-01-18T05:07:41.843Z,4.37
2018-01-18T05:10:16.928Z,4.24
2018-01-18T05:12:52.013Z,4.21
2018-01-18T05:15:26.979Z,4.10
2018-01-18T05:18:02.103Z,4.05
2018-01-18T05:20:37.063Z,3.99
2018-01-18T05:23:11.873Z,3.94
2018-01-18T05:25:46.950Z,3.89
2018-01-18T05:28:22.019Z,3.81
2018-01-18T05:30:56.662Z,3.81
2018-01-18T05:33:31.610Z,3.78
2018-01-18T05:36:06.475Z,3.81
2018-01-18T05:38:41.292Z,3.82
2018-01-18T05:41:16.343Z,3.78
2018-01-18T05:43:51.374Z,3.75
2018-01-18T05:46:26.187Z,3.78
2018-01-18T05:49:01.011Z,3.84
2018-01-18T05:51:36.131Z,3.89
2018-01-18T05:54:10.599Z,3.88
2018-01-18T05:56:45.198Z,3.92
2018-01-18T05:59:20.054Z,3.89
2018-01-18T06:01:55.217Z,3.89
2018-01-18T06:04:30.195Z,3.81
2018-01-18T06:07:05.223Z,3.77
2018-01-18T06:09:40.198Z,3.73
2018-01-18T06:12:15.211Z,3.67
2018-01-18T06:14:50.459Z,3.64
2018-01-18T06:17:25.180Z,3.60
2018-01-18T06:20:00.478Z,3.54
2018-01-18T06:22:35.426Z,3.52
2018-01-18T06:25:11.086Z,3.48
2018-01-18T06:27:45.719Z,3.44
2018-01-18T06:30:21.191Z,3.46
2018-01-18T06:32:56.178Z,3.47
2018-01-18T06:35:31.334Z,3.42
2018-01-18T06:38:06.346Z,3.41
2018-01-18T06:40:41.326Z,3.40
2018-01-18T06:43:16.322Z,3.37
2018-01-18T06:45:51.267Z,3.32
2018-01-18T06:48:26.323Z,3.32
2018-01-18T06:51:01.273Z,3.31
2018-01-18T06:53:36.257Z,3.33
2018-01-18T06:56:11.060Z,3.29
2018-01-18T06:58:46.335Z,3.27
2018-01-18T07:01:21.207Z,3.27
2018-01-18T07:03:56.258Z,3.30
2018-01-18T07:06:32.151Z,3.28
2018-01-18T07:09:07.355Z,3.20
2018-01-18T07:11:42.392Z,3.16
2018-01-18T07:14:17.554Z,3.21
2018-01-18T07:16:52.050Z,3.16
2018-01-18T07:19:27.398Z,3.17
2018-01-18T07:22:02.363Z,3.13
2018-01-18T07:24:37.734Z,3.16
2018-01-18T07:27:12.682Z,3.21
2018-01-18T07:29:47.603Z,3.23
2018-01-18T07:32:22.697Z,3.34
2018-01-18T07:34:57.896Z,3.53
2018-01-18T07:37:32.437Z,3.62
2018-01-18T07:40:07.378Z,3.71
2018-01-18T07:42:42.146Z,3.75
2018-01-18T07:45:17.451Z,3.86
2018-01-18T07:47:52.618Z,4.01
2018-01-18T07:50:27.598Z,4.15
2018-01-18T07:53:02.723Z,4.28
2018-01-18T07:55:37.703Z,4.39
2018-01-18T07:58:12.630Z,4.51
2018-01-18T08:00:47.459Z,4.64
2018-01-18T08:03:27.728Z,4.74
2018-01-18T08:06:02.450Z,4.85
2018-01-18T08:08:37.079Z,4.99
2018-01-18T08:11:11.964Z,5.12
2018-01-18T08:13:46.791Z,5.27
2018-01-18T08:16:21.670Z,5.40
2018-01-18T08:18:56.686Z,5.55
2018-01-18T08:21:31.607Z,5.64
2018-01-18T08:24:06.579Z,5.73
2018-01-18T08:26:41.510Z,5.82
2018-01-18T08:29:16.581Z,5.88
2018-01-18T08:31:51.715Z,5.92
2018-01-18T08:34:26.494Z,5.97
2018-01-18T08:37:02.019Z,6.00
2018-01-18T08:39:36.786Z,6.06
2018-01-18T08:42:11.840Z,6.07
2018-01-18T08:44:47.019Z,6.09
2018-01-18T08:47:21.988Z,6.19
2018-01-18T08:49:56.999Z,6.20
2018-01-18T08:52:32.574Z,6.26
2018-01-18T08:55:07.488Z,6.30
2018-01-18T08:57:42.577Z,6.30
2018-01-18T09:00:17.554Z,6.35
2018-01-18T09:02:52.773Z,6.38
2018-01-18T09:05:27.942Z,6.46
2018-01-18T09:08:03.455Z,6.54
2018-01-18T09:10:37.690Z,6.66
2018-01-18T09:13:12.938Z,6.80
2018-01-18T09:18:45.916Z,7.16
2018-01-18T09:21:20.637Z,7.35
2018-01-18T09:23:55.640Z,7.51
2018-01-18T09:26:30.628Z,7.66
2018-01-18T09:29:05.211Z,7.82
2018-01-18T09:31:40.097Z,7.98
2018-01-18T09:34:15.072Z,8.07
2018-01-18T09:36:50.148Z,8.20
2018-01-18T09:39:24.711Z,8.29
2018-01-18T09:41:59.992Z,8.37
2018-01-18T09:44:35.132Z,8.48
2018-01-18T09:47:10.137Z,8.58
2018-01-18T09:49:45.144Z,8.65
2018-01-18T09:52:20.112Z,8.64
2018-01-18T09:54:54.904Z,8.60
2018-01-18T09:57:30.101Z,8.63
2018-01-18T10:00:05.260Z,8.69
2018-01-18T10:02:40.280Z,8.75
2018-01-18T10:05:15.045Z,8.80
2018-01-18T10:07:50.604Z,8.95
2018-01-18T10:13:22.951Z,9.49
2018-01-18T10:15:58.022Z,9.68
2018-01-18T10:18:32.995Z,9.76
2018-01-18T10:21:08.132Z,9.84
2018-01-18T10:23:42.763Z,9.89
2018-01-18T10:26:17.262Z,9.86
2018-01-18T10:28:52.417Z,9.87
2018-01-18T10:31:27.310Z,9.78
2018-01-18T10:34:02.232Z,9.67
2018-01-18T10:36:37.139Z,9.52
2018-01-18T10:39:11.502Z,9.40
2018-01-18T10:41:46.002Z,9.36
2018-01-18T10:44:20.910Z,9.28
2018-01-18T10:46:55.994Z,9.18
2018-01-18T10:49:30.854Z,9.11
2018-01-18T10:52:06.018Z,8.99
2018-01-18T10:54:41.145Z,8.94
2018-01-18T10:57:16.189Z,8.91
2018-01-18T10:59:51.003Z,8.86
2018-01-18T11:02:25.859Z,8.83
2018-01-18T11:05:00.923Z,8.73
2018-01-18T11:07:36.079Z,8.58
2018-01-18T11:10:10.954Z,8.36
2018-01-18T11:12:45.550Z,8.09
2018-01-18T11:15:21.001Z,7.77
2018-01-18T11:17:56.406Z,7.46
2018-01-18T11:20:31.278Z,7.30
2018-01-18T11:23:06.127Z,7.15
2018-01-18T11:25:41.043Z,6.99
2018-01-18T11:28:16.067Z,6.77
2018-01-18T11:30:50.679Z,6.64
2018-01-18T11:33:25.922Z,6.52
2018-01-18T11:36:00.402Z,6.32
2018-01-18T11:38:35.362Z,6.14
2018-01-18T11:41:10.134Z,6.01
2018-01-18T11:43:45.409Z,5.94
2018-01-18T11:46:20.153Z,5.94
2018-01-18T11:48:55.167Z,5.91
2018-01-18T11:51:29.998Z,5.88
2018-01-18T11:54:04.979Z,5.87
2018-01-18T11:56:40.063Z,5.88
2018-01-18T11:59:15.142Z,5.91
2018-01-18T12:01:49.998Z,5.95
2018-01-18T12:04:25.147Z,5.99
2018-01-18T12:07:00.377Z,6.09
2018-01-18T12:09:35.194Z,6.09
2018-01-18T12:12:10.427Z,6.11
2018-01-18T12:14:46.399Z,6.15
2018-01-18T12:17:21.134Z,6.22
2018-01-18T12:19:56.006Z,6.23
2018-01-18T12:22:30.926Z,6.23
2018-01-18T12:25:05.286Z,6.24
2018-01-18T12:27:40.542Z,6.17
2018-01-18T12:30:15.554Z,6.06
2018-01-18T12:32:50.588Z,6.01
2018-01-18T12:35:25.462Z,5.88
2018-01-18T12:38:01.204Z,5.81
2018-01-18T12:40:36.046Z,5.64
2018-01-18T12:43:10.711Z,5.54
2018-01-18T12:45:45.962Z,5.42
2018-01-18T12:48:20.766Z,5.35
2018-01-18T12:50:55.578Z,5.32
2018-01-18T12:53:30.648Z,5.30
2018-01-18T12:56:05.536Z,5.23
2018-01-18T12:58:40.485Z,5.23
2018-01-18T13:01:15.277Z,5.24
2018-01-18T13:03:50.402Z,5.26
2018-01-18T13:06:25.238Z,5.25
2018-01-18T13:09:00.437Z,5.25
2018-01-18T13:11:35.190Z,5.21
2018-01-18T13:14:10.377Z,5.20
2018-01-18T13:16:45.714Z,5.19
2018-01-18T13:19:20.750Z,5.24
2018-01-18T13:21:55.420Z,5.30
2018-01-18T13:24:30.263Z,5.37
2018-01-18T13:27:05.270Z,5.29
2018-01-18T13:29:40.343Z,5.25
2018-01-18T13:32:15.472Z,5.21
2018-01-18T13:34:50.350Z,5.26
2018-01-18T13:37:25.367Z,5.32
2018-01-18T13:40:00.567Z,5.36
2018-01-18T13:42:35.742Z,5.37
2018-01-18T13:45:10.711Z,5.37
2018-01-18T13:47:45.702Z,5.37
2018-01-18T13:52:55.254Z,5.49
2018-01-18T13:55:30.134Z,5.42
2018-01-18T13:58:05.303Z,5.35
2018-01-18T14:00:39.858Z,5.36
2018-01-18T14:03:15.282Z,5.33
2018-01-18T14:05:50.379Z,5.26
2018-01-18T14:08:25.433Z,5.23
2018-01-18T14:11:00.146Z,5.28
2018-01-18T14:13:35.434Z,5.26
2018-01-18T14:16:10.418Z,5.30
2018-01-18T14:18:45.502Z,5.30
2018-01-18T14:21:20.547Z,5.30
2018-01-18T14:23:55.971Z,5.28
2018-01-18T14:26:30.914Z,5.31
2018-01-18T14:29:06.338Z,5.32
2018-01-18T14:31:41.327Z,5.33
2018-01-18T14:34:16.328Z,5.43
2018-01-18T14:36:51.166Z,5.45
2018-01-18T14:39:25.758Z,5.53
2018-01-18T14:42:00.822Z,5.53
2018-01-18T14:44:35.954Z,5.59
2018-01-18T14:47:10.704Z,5.54
2018-01-18T14:49:45.822Z,5.51
2018-01-18T14:52:20.483Z,5.56
2018-01-18T14:54:55.766Z,5.60
2018-01-18T14:57:30.619Z,5.62
2018-01-18T15:00:05.053Z,5.58
2018-01-18T15:02:39.574Z,5.57
2018-01-18T15:05:14.489Z,5.52
2018-01-18T15:07:49.582Z,5.45
2018-01-18T15:10:24.258Z,5.47
2018-01-18T15:12:59.150Z,5.53
2018-01-18T15:15:34.574Z,5.46
2018-01-18T15:18:09.383Z,5.34
2018-01-18T15:20:43.734Z,5.32
2018-01-18T15:23:18.913Z,5.26
2018-01-18T15:25:54.204Z,5.17
2018-01-18T15:28:29.718Z,5.09
2018-01-18T15:31:04.804Z,5.05
2018-01-18T15:33:39.826Z,5.01
2018-01-18T15:36:14.715Z,4.99
2018-01-18T15:38:49.867Z,5.07
2018-01-18T15:41:24.849Z,5.11
2018-01-18T15:43:59.961Z,5.06
2018-01-18T15:46:34.945Z,5.10
2018-01-18T15:49:10.242Z,5.19
2018-01-18T15:51:46.061Z,5.24
2018-01-18T15:54:20.877Z,5.27
2018-01-18T15:56:55.923Z,5.27
2018-01-18T15:59:30.642Z,5.24
2018-01-18T16:02:05.759Z,5.12
2018-01-18T16:04:40.775Z,5.04
2018-01-18T16:07:15.699Z,5.03
2018-01-18T16:09:50.482Z,5.04
2018-01-18T16:12:25.617Z,5.02
2018-01-18T16:15:00.982Z,5.10
2018-01-18T16:17:36.209Z,5.11
2018-01-18T16:20:11.158Z,5.19
2018-01-18T16:22:46.219Z,5.23
2018-01-18T16:25:20.805Z,5.17
2018-01-18T16:27:55.807Z,5.18
2018-01-18T16:30:30.774Z,5.17
2018-01-18T16:33:05.806Z,5.07
2018-01-18T16:38:40.815Z,5.04
2018-01-18T16:41:16.036Z,5.06
2018-01-18T16:43:51.471Z,5.11
2018-01-18T16:46:25.971Z,5.07
2018-01-18T16:49:01.135Z,5.05
2018-01-18T16:51:36.400Z,5.03
2018-01-18T16:54:11.756Z,4.96
2018-01-18T16:56:46.436Z,5.00
2018-01-18T16:59:21.358Z,4.98
2018-01-18T17:01:56.648Z,4.94
2018-01-18T17:04:32.036Z,4.98
2018-01-18T17:07:06.954Z,4.95
2018-01-18T17:09:41.563Z,4.93
2018-01-18T17:12:16.352Z,4.95
2018-01-18T17:14:51.198Z,4.93
2018-01-18T17:17:26.205Z,4.83
2018-01-18T17:20:01.231Z,4.81
2018-01-18T17:22:36.111Z,4.72
2018-01-18T17:25:11.275Z,4.66
2018-01-18T17:27:46.396Z,4.62
2018-01-18T17:30:21.563Z,4.63
2018-01-18T17:32:56.332Z,4.53
2018-01-18T17:35:31.039Z,4.45
2018-01-18T17:38:06.274Z,4.40
2018-01-18T17:40:40.957Z,4.43
2018-01-18T17:43:16.092Z,4.46
2018-01-18T17:45:51.220Z,4.44
2018-01-18T17:48:25.986Z,4.48
2018-01-18T17:51:01.248Z,4.59
2018-01-18T17:53:36.136Z,4.59
2018-01-18T17:56:11.292Z,4.58
2018-01-18T17:58:46.419Z,4.59
2018-01-18T18:01:21.299Z,4.57
2018-01-18T18:03:56.348Z,4.56
2018-01-18T18:06:31.285Z,4.53
2018-01-18T18:09:05.914Z,4.60
2018-01-18T18:11:41.051Z,4.65
2018-01-18T18:14:16.092Z,4.65
2018-01-18T18:16:51.162Z,4.61
2018-01-18T18:19:26.224Z,4.66
2018-01-18T18:22:01.312Z,4.71
2018-01-18T18:24:36.196Z,4.73
2018-01-18T18:27:11.142Z,4.78
2018-01-18T18:29:46.527Z,4.73
2018-01-18T18:32:21.483Z,4.77
2018-01-18T18:34:56.394Z,4.83
2018-01-18T18:37:31.919Z,4.86
2018-01-18T18:40:06.476Z,4.93
2018-01-18T18:42:41.613Z,4.93
2018-01-18T18:45:16.246Z,4.93
2018-01-18T18:47:51.596Z,4.99
2018-01-18T18:50:25.980Z,5.01
2018-01-18T18:53:01.432Z,5.03
2018-01-18T18:55:36.295Z,5.06
2018-01-18T18:58:11.311Z,5.05
2018-01-18T19:00:46.552Z,5.10
2018-01-18T19:03:21.223Z,5.13
2018-01-18T19:05:56.497Z,5.13
2018-01-18T19:08:31.319Z,5.07
2018-01-18T19:11:06.362Z,5.07
2018-01-18T19:13:41.291Z,5.05
2018-01-18T19:16:16.298Z,5.03
2018-01-18T19:18:51.585Z,5.06
2018-01-18T19:21:27.242Z,5.12
2018-01-18T19:24:02.531Z,5.11
2018-01-18T19:26:37.684Z,5.16
2018-01-18T19:29:12.400Z,5.17
2018-01-18T19:31:47.410Z,5.21
2018-01-18T19:34:22.620Z,5.13
2018-01-18T19:36:57.788Z,5.15
2018-01-18T19:39:32.371Z,5.15
2018-01-18T19:42:07.289Z,5.09
2018-01-18T19:44:42.422Z,5.05
2018-01-18T19:47:17.487Z,5.07
2018-01-18T19:49:52.868Z,5.06
2018-01-18T19:52:27.538Z,5.05
2018-01-18T19:55:02.711Z,5.03
2018-01-18T19:57:38.176Z,5.01
2018-01-18T20:00:12.727Z,5.00
2018-01-18T20:02:47.780Z,5.00
2018-01-18T20:05:22.754Z,4.99
2018-01-18T20:07:57.909Z,4.98
2018-01-18T20:10:32.887Z,4.97
2018-01-18T20:13:07.778Z,4.97
2018-01-18T20:15:44.735Z,5.01
2018-01-18T20:18:19.886Z,5.02
2018-01-18T20:20:55.016Z,5.01
2018-01-18T20:23:29.789Z,4.99
2018-01-18T20:26:04.549Z,4.97
2018-01-18T20:28:39.681Z,5.02
2018-01-18T20:31:14.617Z,5.10
2018-01-18T20:33:49.188Z,5.11
2018-01-18T20:36:24.442Z,5.17
2018-01-18T20:38:59.720Z,5.17
2018-01-18T20:41:34.473Z,5.12
2018-01-18T20:44:09.601Z,5.10
2018-01-18T20:46:44.483Z,5.10
2018-01-18T20:49:19.335Z,5.11
2018-01-18T20:51:54.387Z,5.12
2018-01-18T20:54:29.578Z,5.11
2018-01-18T20:57:03.995Z,5.18
2018-01-18T20:59:39.112Z,5.18
2018-01-18T21:02:14.007Z,5.17
2018-01-18T21:04:48.990Z,5.18
2018-01-18T21:07:23.761Z,5.18
2018-01-18T21:09:59.411Z,5.18
2018-01-18T21:12:34.652Z,5.15
2018-01-18T21:15:09.315Z,5.07
2018-01-18T21:17:44.934Z,5.03
2018-01-18T21:20:20.067Z,4.98
2018-01-18T21:22:54.883Z,4.94
2018-01-18T21:25:29.720Z,4.91
2018-01-18T21:28:04.760Z,4.93
2018-01-18T21:30:40.388Z,4.94
2018-01-18T21:33:15.857Z,4.90
2018-01-18T21:35:50.723Z,4.83
2018-01-18T21:38:25.268Z,4.79
2018-01-18T21:41:00.654Z,4.78
2018-01-18T21:43:35.620Z,4.75
2018-01-18T21:46:12.637Z,4.74
2018-01-18T21:48:47.718Z,4.79
2018-01-18T21:51:22.775Z,4.79
2018-01-18T21:53:58.089Z,4.75
2018-01-18T21:56:33.256Z,4.75
2018-01-18T21:59:08.751Z,4.74
2018-01-18T22:01:43.772Z,4.73
2018-01-18T22:04:18.584Z,4.69
2018-01-18T22:06:53.151Z,4.75
2018-01-18T22:09:28.223Z,4.77
2018-01-18T22:12:03.066Z,4.77
2018-01-18T22:14:37.914Z,4.75
2018-01-18T22:17:12.796Z,4.75
2018-01-18T22:19:47.888Z,4.76
2018-01-18T22:22:23.011Z,4.78
2018-01-18T22:24:58.235Z,4.76
2018-01-18T22:27:33.032Z,4.78
2018-01-18T22:30:08.219Z,4.81
2018-01-18T22:32:43.272Z,4.83
2018-01-18T22:35:18.304Z,4.80
2018-01-18T22:37:53.233Z,4.77
2018-01-18T22:40:28.069Z,4.79
2018-01-18T22:43:03.064Z,4.81
2018-01-18T22:45:37.950Z,4.87
2018-01-18T22:48:13.035Z,4.89
2018-01-18T22:50:47.816Z,4.93
2018-01-18T22:53:22.996Z,4.87
2018-01-18T22:55:58.076Z,4.81
2018-01-18T22:58:33.210Z,4.77
2018-01-18T23:01:08.104Z,4.77
2018-01-18T23:03:43.067Z,4.78
2018-01-18T23:06:17.826Z,4.78
2018-01-18T23:08:52.849Z,4.74
2018-01-18T23:11:27.493Z,4.75
2018-01-18T23:14:02.398Z,4.77
2018-01-18T23:16:37.211Z,4.77
2018-01-18T23:19:12.260Z,4.80
2018-01-18T23:21:47.308Z,4.79
2018-01-18T23:24:22.337Z,4.78
2018-01-18T23:26:57.209Z,4.79
2018-01-18T23:29:32.113Z,4.78
2018-01-18T23:32:07.159Z,4.79
2018-01-18T23:34:41.878Z,4.78
2018-01-18T23:37:16.971Z,4.82
2018-01-18T23:39:52.195Z,4.80
2018-01-18T23:42:26.839Z,4.78
2018-01-18T23:45:02.201Z,4.74
2018-01-18T23:47:37.179Z,4.72
2018-01-18T23:50:12.107Z,4.66
2018-01-18T23:52:47.404Z,4.68
2018-01-18T23:55:22.054Z,4.76
2018-01-18T23:57:57.023Z,4.75
